OOCL Oakland — 3EKJ6 — position and weather

sailwx.info

Track history (hours):
 
Tides and Currents Weather Stations Pressure Air Temp Water Temp Dewpoint Dewpoint Depression Visibility Wind Speed Wind Dir Waves Ship Positions

OOCL Oakland

Last reported at 2018-Apr-20 13:27 UTC. Time now 2018-Apr-22 17:56 UTC.
Position S 34°46' E 138°30'.

Length 280 m; draft 11.6 m.

Type: Ship. MMSI: 372703235.

Date/timePositionNaut miles runAvg speedWind from/ knotsBaromVisibWave heightAir tempDewpointWater temp
2018-Apr-20 13:27S 34°46' E 138°30'0 0.0
2018-Apr-20 04:27S 34°46' E 138°30'36110.8
2018-Apr-18 18:56S 38°22' E 144°30'614.7
2018-Apr-18 18:31S 38°19' E 144°36'193 3.8
2018-Apr-16 15:46S 38°24' E 148°42'519.6
2018-Apr-16 15:30S 38°21' E 148°48'1119.1
2018-Apr-16 14:57S 38°15' E 148°59'1018.9
2018-Apr-16 14:26S 38°10' E 149°09'26818.8
2018-Apr-16 00:14S 34°02' E 151°16'311.2
2018-Apr-15 23:59S 33°60' E 151°14'2 0.4
2018-Apr-15 19:47S 33°58' E 151°13'0 0.0
2018-Apr-15 19:29S 33°58' E 151°13'0 0.0
2018-Apr-13 18:17S 33°58' E 151°13'0 0.0
2018-Apr-13 17:59S 33°58' E 151°13'0 0.0
2018-Apr-13 16:47S 33°58' E 151°13'0 0.0
2018-Apr-13 15:48S 33°58' E 151°13'0 0.0
2018-Apr-13 15:25S 33°58' E 151°13'0 0.1
2018-Apr-13 15:00S 33°58' E 151°13'0 0.1
2018-Apr-13 14:26S 33°58' E 151°13'0 0.0
2018-Apr-13 13:53S 33°58' E 151°13'0 0.0
2018-Apr-13 13:26S 33°58' E 151°13'0 0.0
2018-Apr-13 12:56S 33°58' E 151°13'0 0.0
2018-Apr-13 11:20S 33°58' E 151°13'0 0.0
2018-Apr-13 10:59S 33°58' E 151°13'1 0.2
2018-Apr-13 02:41S 33°59' E 151°13'3 7.7
2018-Apr-13 02:20S 34°01' E 151°15'2 5.8
2018-Apr-13 01:59S 34°03' E 151°17'3 6.9
2018-Apr-13 01:30S 34°05' E 151°20'3 6.8
2018-Apr-13 01:00S 34°08' E 151°20'26815.8
2018-Apr-12 08:00S 38°16' E 149°12'918.0
2018-Apr-12 07:29S 38°22' E 149°03'1018.8
2018-Apr-12 06:58S 38°28' E 148°54'919.4
2018-Apr-12 06:29S 38°34' E 148°45'918.5
2018-Apr-12 06:00S 38°39' E 148°35'918.5
2018-Apr-12 05:30S 38°43' E 148°24'1018.4
2018-Apr-12 04:58S 38°47' E 148°13'5718.3
2018-Apr-12 01:52S 39°05' E 147°04'718.7
2018-Apr-12 01:30S 39°08' E 146°55'3218.4
2018-Apr-11 23:44S 39°17' E 146°15'818.5
2018-Apr-11 23:18S 39°17' E 146°05'619.5
2018-Apr-11 23:00S 39°17' E 145°57'1019.4
2018-Apr-11 22:29S 39°17' E 145°44'919.2
2018-Apr-11 22:00S 39°16' E 145°32'918.7
2018-Apr-11 21:30S 39°16' E 145°20'1018.1
2018-Apr-11 20:58S 39°16' E 145°08'918.2
2018-Apr-11 20:30S 39°16' E 144°57'917.9
2018-Apr-11 19:58S 39°16' E 144°45'35518.4
2018-Apr-11 00:42S 37°43' E 137°27'617.9
2018-Apr-11 00:23S 37°42' E 137°20'  
Track history (hours):
 
Tides and Currents Weather Stations Pressure Air Temp Water Temp Dewpoint Dewpoint Depression Visibility Wind Speed Wind Dir Waves Ship Positions

OOCL Oakland

Last reported at 2018-Apr-20 13:27 UTC. Time now 2018-Apr-22 17:56 UTC.
Position S 34°46' E 138°30'.

Length 280 m; draft 11.6 m.

Type: Ship. MMSI: 372703235.

Date/timePositionNaut miles runAvg speedWind from/ knotsBaromVisibWave heightAir tempDewpointWater temp
2018-Apr-20 13:27S 34°46' E 138°30'0 0.0
2018-Apr-20 04:27S 34°46' E 138°30'36110.8
2018-Apr-18 18:56S 38°22' E 144°30'614.7
2018-Apr-18 18:31S 38°19' E 144°36'193 3.8
2018-Apr-16 15:46S 38°24' E 148°42'519.6
2018-Apr-16 15:30S 38°21' E 148°48'1119.1
2018-Apr-16 14:57S 38°15' E 148°59'1018.9
2018-Apr-16 14:26S 38°10' E 149°09'26818.8
2018-Apr-16 00:14S 34°02' E 151°16'311.2
2018-Apr-15 23:59S 33°60' E 151°14'2 0.4
2018-Apr-15 19:47S 33°58' E 151°13'0 0.0
2018-Apr-15 19:29S 33°58' E 151°13'0 0.0
2018-Apr-13 18:17S 33°58' E 151°13'0 0.0
2018-Apr-13 17:59S 33°58' E 151°13'0 0.0
2018-Apr-13 16:47S 33°58' E 151°13'0 0.0
2018-Apr-13 15:48S 33°58' E 151°13'0 0.0
2018-Apr-13 15:25S 33°58' E 151°13'0 0.1
2018-Apr-13 15:00S 33°58' E 151°13'0 0.1
2018-Apr-13 14:26S 33°58' E 151°13'0 0.0
2018-Apr-13 13:53S 33°58' E 151°13'0 0.0
2018-Apr-13 13:26S 33°58' E 151°13'0 0.0
2018-Apr-13 12:56S 33°58' E 151°13'0 0.0
2018-Apr-13 11:20S 33°58' E 151°13'0 0.0
2018-Apr-13 10:59S 33°58' E 151°13'1 0.2
2018-Apr-13 02:41S 33°59' E 151°13'3 7.7
2018-Apr-13 02:20S 34°01' E 151°15'2 5.8
2018-Apr-13 01:59S 34°03' E 151°17'3 6.9
2018-Apr-13 01:30S 34°05' E 151°20'3 6.8
2018-Apr-13 01:00S 34°08' E 151°20'26815.8
2018-Apr-12 08:00S 38°16' E 149°12'918.0
2018-Apr-12 07:29S 38°22' E 149°03'1018.8
2018-Apr-12 06:58S 38°28' E 148°54'919.4
2018-Apr-12 06:29S 38°34' E 148°45'918.5
2018-Apr-12 06:00S 38°39' E 148°35'918.5
2018-Apr-12 05:30S 38°43' E 148°24'1018.4
2018-Apr-12 04:58S 38°47' E 148°13'5718.3
2018-Apr-12 01:52S 39°05' E 147°04'718.7
2018-Apr-12 01:30S 39°08' E 146°55'3218.4
2018-Apr-11 23:44S 39°17' E 146°15'818.5
2018-Apr-11 23:18S 39°17' E 146°05'619.5
2018-Apr-11 23:00S 39°17' E 145°57'1019.4
2018-Apr-11 22:29S 39°17' E 145°44'919.2
2018-Apr-11 22:00S 39°16' E 145°32'918.7
2018-Apr-11 21:30S 39°16' E 145°20'1018.1
2018-Apr-11 20:58S 39°16' E 145°08'918.2
2018-Apr-11 20:30S 39°16' E 144°57'917.9
2018-Apr-11 19:58S 39°16' E 144°45'35518.4
2018-Apr-11 00:42S 37°43' E 137°27'617.9
2018-Apr-11 00:23S 37°42' E 137°20'  

Dump ship's entire track history